Charlevoix, MI

5:39 PM EDT on July 31, 2015 (GMT -0400)
1.5 W Ironton | | Change Station
CLOSE
Current Station
Personal Weather Station
Location: Charlevoix, MI
Elevation: 750 ft
Nearby Weather Stations

Elev 750 ft 45.26 °N, 85.22 °W | Updated 3 seconds ago

Rain
Rain
68.8 °F
Feels Like 68.8 °F
N
17.0
Wind Variable Wind from West
Gusts 18.0 mph

Today
High -- | Low -- °F
--% Chance of Precip.
Yesterday
High -- | Low -- °F
Precip. -- in
6:24 AM 9:10 PM
Full, 100% visible
Pressure 29.89 in
Visibility 7.0 miles
Clouds Scattered Clouds 3700 ft
Mostly Cloudy 8000 ft
Overcast 10000 ft
Dew Point 62 °F
Humidity 78%
Rainfall 0.15 in
Snow Depth Not available.
UV 1 out of 12
Pollen 7.30 out of 12
Air Quality Not available.
Flu Activity Not available.
METAR KCVX 312135Z AUTO 27017G20KT 7SM RA SCT037 BKN080 OVC100 21/15 A2989 RMK AO2 T02110152

More Conditions Fewer Conditions

Pressure 29.89 in
Visibility 7.0 miles
Clouds Scattered Clouds 3700 ft
Mostly Cloudy 8000 ft
Overcast 10000 ft
Dew Point 62 °F
Humidity 78%
Rainfall 0.15 in
Snow Depth Not available.
UV 1 out of 12
Pollen 7.30 out of 12
Air Quality Not available.
Flu Activity Not available.
METAR KCVX 312135Z AUTO 27017G20KT 7SM RA SCT037 BKN080 OVC100 21/15 A2989 RMK AO2 T02110152

More Conditions Fewer Conditions

Nowcast | as of 5:00 PM EDT on July 31, 2015

At 6 PM...partly cloudy. Slight chance of thunderstorms. Temperature 74. Northwest winds 13 mph. At 8 PM...partly cloudy. Slight chance of thunderstorms. Temperature 72. Northwest winds 10 mph. At 10 PM...partly cloudy. Slight chance of thunderstorms. Temperature 68. Northwest winds 7 mph. At 12 am...partly cloudy. Slight chance of thunderstorms. Temperature 66. West winds 6 mph.

×

10-Day Weather Forecast

×

Almanac

Astronomy

Jul. 31, 2015 Rise Set
Actual Time
Civil Twilight
Nautical Twilight
Astronomical Twilight
Moon
Length of Visible Light
Length of Day
Tomorrow will be .
, % of the Moon is Illuminated

Today's Extremes

State Highs State Lows

Community

WunderPhotos

Upload Photos

1,842,754 photos uploaded!

WunderBlogs® & News

Nearby

Air Quality

  Air Quality AQ Index Pollutant
Not available.

Snow Depth

Station Depth Elevation

Earthquake Activity

City Distance Mag. Time & Date
Minimum magnitude displayed is 2.5.

Coastal Water Temperatures

Place Temperature

Stations

Nearby Weather Stations

Station Location Temp. Windchill Dew Point Humidity Wind Precip. Elev Updated Type